createdAt,value
2023-03-29T00:02:48.882Z,1.65
2023-03-29T00:08:14.849Z,0.80
2023-03-29T00:13:37.004Z,1.23
2023-03-29T00:18:59.316Z,0.73
2023-03-29T00:24:21.619Z,1.30
2023-03-29T00:29:43.528Z,0.32
2023-03-29T00:35:06.587Z,0.73
2023-03-29T00:40:28.430Z,0.70
2023-03-29T00:45:50.284Z,0.50
2023-03-29T00:51:14.646Z,0.20
2023-03-29T00:56:40.231Z,0.60
2023-03-29T01:07:31.174Z,1.25
2023-03-29T01:13:05.302Z,0.70
2023-03-29T01:18:27.159Z,0.65
2023-03-29T01:24:09.730Z,0.65
2023-03-29T01:29:49.214Z,0.55
2023-03-29T01:35:11.082Z,0.57
2023-03-29T01:40:34.124Z,1.55
2023-03-29T01:46:03.283Z,0.00
2023-03-29T01:52:02.090Z,0.20
2023-03-29T01:57:26.418Z,0.57
2023-03-29T02:02:50.418Z,0.45
2023-03-29T02:08:15.766Z,0.70
2023-03-29T02:13:37.651Z,0.65
2023-03-29T02:18:59.776Z,2.45
2023-03-29T02:24:24.518Z,0.10
2023-03-29T02:29:48.025Z,0.30
2023-03-29T02:35:22.247Z,0.30
2023-03-29T02:40:44.401Z,0.38
2023-03-29T02:46:08.093Z,0.47
2023-03-29T02:51:34.502Z,0.15
2023-03-29T02:57:02.805Z,0.52
2023-03-29T03:02:28.084Z,0.08
2023-03-29T03:07:50.040Z,0.10
2023-03-29T03:13:13.110Z,0.85
2023-03-29T03:18:34.914Z,0.00
2023-03-29T03:23:56.692Z,0.20
2023-03-29T03:29:19.452Z,0.17
2023-03-29T03:34:41.417Z,0.10
2023-03-29T03:40:09.176Z,0.15
2023-03-29T03:45:31.639Z,0.50
2023-03-29T03:50:56.045Z,0.85
2023-03-29T03:56:17.989Z,0.38
2023-03-29T04:01:43.833Z,0.52
2023-03-29T04:07:06.100Z,0.40
2023-03-29T04:12:27.892Z,1.40
2023-03-29T04:17:49.681Z,0.55
2023-03-29T04:23:11.735Z,0.15
2023-03-29T04:28:33.786Z,0.20
2023-03-29T04:33:56.328Z,0.10
2023-03-29T04:39:19.627Z,0.20
2023-03-29T04:44:42.974Z,0.20
2023-03-29T04:50:05.577Z,0.30
2023-03-29T04:55:27.445Z,0.10
2023-03-29T05:00:49.809Z,0.38
2023-03-29T05:06:12.579Z,0.17
2023-03-29T05:11:34.996Z,0.17
2023-03-29T05:16:56.851Z,4.20
2023-03-29T05:22:19.101Z,0.90
2023-03-29T05:27:40.908Z,2.33
2023-03-29T05:33:02.859Z,2.67
2023-03-29T05:38:24.635Z,1.27
2023-03-29T05:43:46.995Z,2.97
2023-03-29T05:49:08.958Z,0.85
2023-03-29T05:54:30.942Z,3.10
2023-03-29T05:59:53.537Z,2.05
2023-03-29T06:05:16.410Z,1.35
2023-03-29T06:10:38.414Z,1.42
2023-03-29T06:16:01.326Z,4.38
2023-03-29T06:21:23.715Z,4.47
2023-03-29T06:26:46.900Z,0.70
2023-03-29T06:32:08.748Z,3.60
2023-03-29T06:37:32.215Z,1.40
2023-03-29T06:42:58.198Z,3.05
2023-03-29T06:48:19.973Z,3.85
2023-03-29T06:53:41.943Z,1.10
2023-03-29T06:59:03.746Z,1.48
2023-03-29T07:04:25.583Z,8.90
2023-03-29T07:09:54.518Z,1.80
2023-03-29T07:15:16.501Z,2.10
2023-03-29T07:20:42.707Z,3.30
2023-03-29T07:26:07.818Z,4.80
2023-03-29T07:31:29.963Z,1.75
2023-03-29T07:36:52.311Z,4.68
2023-03-29T07:42:14.125Z,1.98
2023-03-29T07:47:35.934Z,1.80
2023-03-29T07:52:57.878Z,2.05
2023-03-29T07:58:20.442Z,1.40
2023-03-29T08:03:42.820Z,2.63
2023-03-29T08:09:04.624Z,1.05
2023-03-29T08:14:26.725Z,3.97
2023-03-29T08:19:51.308Z,7.22
2023-03-29T08:25:13.976Z,1.55
2023-03-29T08:30:36.419Z,3.10
2023-03-29T08:35:58.332Z,2.83
2023-03-29T08:41:35.773Z,3.67
2023-03-29T08:47:07.481Z,1.92
2023-03-29T08:52:38.162Z,3.85
2023-03-29T08:58:02.802Z,6.60
2023-03-29T09:03:29.350Z,2.60
2023-03-29T09:08:53.497Z,3.25
2023-03-29T09:14:26.047Z,3.45
2023-03-29T09:20:04.315Z,3.42
2023-03-29T09:25:50.825Z,4.53
2023-03-29T09:31:23.217Z,3.33
2023-03-29T09:37:08.250Z,2.47
2023-03-29T09:42:31.584Z,1.95
2023-03-29T09:48:09.390Z,1.42
2023-03-29T09:53:32.268Z,2.67
2023-03-29T09:58:54.202Z,1.95
2023-03-29T10:04:19.046Z,1.67
2023-03-29T10:09:44.336Z,2.60
2023-03-29T10:15:11.653Z,2.45
2023-03-29T10:20:38.226Z,4.43
2023-03-29T10:26:04.512Z,1.63
2023-03-29T10:31:31.629Z,1.30
2023-03-29T10:37:01.461Z,3.22
2023-03-29T10:42:25.638Z,5.20
2023-03-29T10:47:49.042Z,2.50
2023-03-29T10:53:32.951Z,6.82
2023-03-29T10:59:23.273Z,3.10
2023-03-29T11:04:52.792Z,4.78
2023-03-29T11:10:35.653Z,2.80
2023-03-29T11:16:00.244Z,2.75
2023-03-29T11:21:22.428Z,8.15
2023-03-29T11:27:28.990Z,8.88
2023-03-29T11:33:12.073Z,2.40
2023-03-29T11:38:42.784Z,3.15
2023-03-29T11:44:22.517Z,4.25
2023-03-29T11:49:57.908Z,5.30
2023-03-29T11:55:26.322Z,4.03
2023-03-29T12:00:56.591Z,6.57
2023-03-29T12:06:30.145Z,2.60
2023-03-29T12:11:59.465Z,5.53
2023-03-29T12:17:29.377Z,4.80
2023-03-29T12:22:52.226Z,2.30
2023-03-29T12:29:05.688Z,2.85
2023-03-29T12:34:56.146Z,2.90
2023-03-29T12:40:20.862Z,5.00
2023-03-29T12:45:48.976Z,1.53
2023-03-29T12:51:24.333Z,1.58
2023-03-29T12:56:52.471Z,2.57
2023-03-29T13:02:14.472Z,5.55
2023-03-29T13:07:47.781Z,5.40
2023-03-29T13:13:18.092Z,2.22
2023-03-29T13:19:12.812Z,2.80
2023-03-29T13:25:06.411Z,1.55
2023-03-29T13:30:46.186Z,3.90
2023-03-29T13:36:21.406Z,3.60
2023-03-29T13:41:43.395Z,3.87
2023-03-29T13:47:33.401Z,6.40
2023-03-29T13:53:04.238Z,2.80
2023-03-29T13:58:35.506Z,5.15
2023-03-29T14:03:59.091Z,3.08
2023-03-29T14:09:28.453Z,3.30
2023-03-29T14:15:03.871Z,7.63
2023-03-29T14:20:26.310Z,4.97
2023-03-29T14:25:48.406Z,3.22
2023-03-29T14:31:18.422Z,9.90
2023-03-29T14:36:40.839Z,7.28
2023-03-29T14:42:03.047Z,3.53
2023-03-29T14:47:29.598Z,3.03
2023-03-29T14:52:52.625Z,1.73
2023-03-29T14:58:20.417Z,3.10
2023-03-29T15:03:44.975Z,3.67
2023-03-29T15:09:08.214Z,3.93
2023-03-29T15:14:35.755Z,2.33
2023-03-29T15:20:13.409Z,1.55
2023-03-29T15:25:38.284Z,3.33
2023-03-29T15:36:28.126Z,6.82
2023-03-29T15:41:51.033Z,5.75
2023-03-29T15:47:13.902Z,5.72
2023-03-29T15:52:36.393Z,4.72
2023-03-29T15:57:58.430Z,3.67
2023-03-29T16:03:22.597Z,4.15
2023-03-29T16:08:44.446Z,9.02
2023-03-29T16:14:27.977Z,6.55
2023-03-29T16:19:49.903Z,5.93
2023-03-29T16:25:18.008Z,11.55
2023-03-29T16:30:40.161Z,13.75
2023-03-29T16:36:02.306Z,8.80
2023-03-29T16:41:24.881Z,8.90
2023-03-29T16:46:46.948Z,9.13
2023-03-29T16:52:08.910Z,6.97
2023-03-29T16:57:30.817Z,11.65
2023-03-29T17:02:52.906Z,12.98
2023-03-29T17:08:14.850Z,14.10
2023-03-29T17:13:37.683Z,12.63
2023-03-29T17:19:02.692Z,11.10
2023-03-29T17:24:24.586Z,11.25
2023-03-29T17:29:46.493Z,11.02
2023-03-29T17:35:10.517Z,9.23
2023-03-29T17:40:32.467Z,8.15
2023-03-29T17:45:55.862Z,11.00
2023-03-29T17:51:19.993Z,7.45
2023-03-29T17:56:41.947Z,5.18
2023-03-29T18:02:05.788Z,9.88
2023-03-29T18:07:31.712Z,7.15
2023-03-29T18:12:54.352Z,5.28
2023-03-29T18:18:16.169Z,7.88
2023-03-29T18:23:42.490Z,6.65
2023-03-29T18:29:04.478Z,8.13
2023-03-29T18:34:26.576Z,7.15
2023-03-29T18:39:48.510Z,7.38
2023-03-29T18:45:11.221Z,6.20
2023-03-29T18:50:33.159Z,27.40
2023-03-29T18:55:56.017Z,14.05
2023-03-29T19:01:18.159Z,13.65
2023-03-29T19:06:42.883Z,27.15
2023-03-29T19:12:05.085Z,8.90
2023-03-29T19:17:28.131Z,15.57
2023-03-29T19:22:50.111Z,26.73
2023-03-29T19:28:12.040Z,6.50
2023-03-29T19:33:34.734Z,9.48
2023-03-29T19:38:57.002Z,10.15
2023-03-29T19:44:20.379Z,8.50
2023-03-29T19:49:42.221Z,10.70
2023-03-29T19:55:04.673Z,17.50
2023-03-29T20:00:26.608Z,12.07
2023-03-29T20:05:48.445Z,17.65
2023-03-29T20:11:14.064Z,11.38
2023-03-29T20:16:36.003Z,29.77
2023-03-29T20:21:58.429Z,20.55
2023-03-29T20:27:21.657Z,19.65
2023-03-29T20:32:43.570Z,22.70
2023-03-29T20:38:05.419Z,11.35
2023-03-29T20:43:27.336Z,11.07
2023-03-29T20:48:55.334Z,10.82
2023-03-29T20:54:18.533Z,7.93
2023-03-29T20:59:41.788Z,14.25
2023-03-29T21:05:04.423Z,7.07
2023-03-29T21:10:27.788Z,11.57
2023-03-29T21:15:49.768Z,8.60
2023-03-29T21:21:12.465Z,12.63
2023-03-29T21:26:34.973Z,7.95
2023-03-29T21:31:56.939Z,9.52
2023-03-29T21:37:18.772Z,5.43
2023-03-29T21:42:40.748Z,5.30
2023-03-29T21:48:02.557Z,6.72
2023-03-29T21:53:24.913Z,4.53
2023-03-29T21:58:46.988Z,5.10
2023-03-29T22:04:08.997Z,3.90
2023-03-29T22:09:32.727Z,6.65
2023-03-29T22:14:54.947Z,1.80
2023-03-29T22:20:18.617Z,2.05
2023-03-29T22:25:40.374Z,5.72
2023-03-29T22:31:04.358Z,4.07
2023-03-29T22:36:31.487Z,3.88
2023-03-29T22:41:53.315Z,1.77
2023-03-29T22:47:15.528Z,1.95
2023-03-29T22:52:37.400Z,2.70
2023-03-29T22:57:59.211Z,4.95
2023-03-29T23:03:23.388Z,2.75
2023-03-29T23:08:45.346Z,4.60
2023-03-29T23:14:07.801Z,4.47
2023-03-29T23:19:29.617Z,2.08
2023-03-29T23:24:51.448Z,1.25
2023-03-29T23:30:13.320Z,4.28
2023-03-29T23:35:35.185Z,2.33
2023-03-29T23:41:01.332Z,2.05
2023-03-29T23:46:23.560Z,2.88
2023-03-29T23:51:48.495Z,1.38
2023-03-29T23:57:11.431Z,3.63
